createdAt,value
2017-12-21T00:00:55.832Z,96.30
2017-12-21T00:02:00.300Z,96.31
2017-12-21T00:03:04.796Z,96.20
2017-12-21T00:04:09.223Z,96.23
2017-12-21T00:05:14.028Z,96.23
2017-12-21T00:06:21.241Z,96.11
2017-12-21T00:07:25.660Z,96.03
2017-12-21T00:08:30.931Z,96.00
2017-12-21T00:09:36.515Z,96.05
2017-12-21T00:10:41.060Z,96.05
2017-12-21T00:11:45.613Z,96.13
2017-12-21T00:12:50.100Z,95.98
2017-12-21T00:13:54.584Z,96.14
2017-12-21T00:14:59.076Z,96.29
2017-12-21T00:16:03.677Z,95.96
2017-12-21T00:17:08.497Z,95.81
2017-12-21T00:18:13.039Z,95.94
2017-12-21T00:19:17.483Z,95.85
2017-12-21T00:20:22.006Z,95.81
2017-12-21T00:21:26.569Z,95.85
2017-12-21T00:22:40.883Z,95.98
2017-12-21T00:23:45.353Z,96.07
2017-12-21T00:24:49.924Z,96.02
2017-12-21T00:25:55.232Z,95.92
2017-12-21T00:26:59.846Z,95.88
2017-12-21T00:28:04.356Z,95.72
2017-12-21T00:29:09.188Z,95.57
2017-12-21T00:30:16.609Z,95.71
2017-12-21T00:31:21.055Z,95.75
2017-12-21T00:32:25.624Z,95.69
2017-12-21T00:33:30.900Z,95.74
2017-12-21T00:34:36.254Z,95.76
2017-12-21T00:35:41.081Z,95.69
2017-12-21T00:36:45.632Z,95.72
2017-12-21T00:37:50.140Z,95.69
2017-12-21T00:38:55.269Z,95.84
2017-12-21T00:39:59.768Z,95.97
2017-12-21T00:41:04.221Z,96.10
2017-12-21T00:42:08.722Z,96.09
2017-12-21T00:43:13.740Z,95.94
2017-12-21T00:44:18.311Z,96.14
2017-12-21T00:47:46.573Z,96.37
2017-12-21T00:48:51.968Z,96.24
2017-12-21T00:49:57.587Z,96.16
2017-12-21T00:51:02.695Z,96.13
2017-12-21T00:52:07.408Z,96.28
2017-12-21T00:53:12.406Z,96.07
2017-12-21T00:54:19.205Z,96.01
2017-12-21T00:55:23.967Z,96.14
2017-12-21T00:56:29.440Z,96.02
2017-12-21T00:57:34.579Z,96.13
2017-12-21T00:58:40.254Z,96.17
2017-12-21T00:59:45.278Z,96.23
2017-12-21T01:00:50.570Z,96.32
2017-12-21T01:01:55.256Z,96.39
2017-12-21T01:02:59.996Z,96.43
2017-12-21T01:04:04.699Z,96.41
2017-12-21T01:05:09.947Z,96.51
2017-12-21T01:06:15.066Z,96.66
2017-12-21T01:07:19.624Z,96.75
2017-12-21T01:08:24.802Z,96.98
2017-12-21T01:09:30.072Z,96.86
2017-12-21T01:10:35.227Z,96.86
2017-12-21T01:11:41.063Z,96.78
2017-12-21T01:12:46.729Z,96.67
2017-12-21T01:13:51.258Z,96.50
2017-12-21T01:14:57.857Z,96.58
2017-12-21T01:16:03.645Z,96.51
2017-12-21T01:17:08.693Z,96.58
2017-12-21T01:18:14.225Z,96.55
2017-12-21T01:19:20.057Z,96.47
2017-12-21T01:20:24.845Z,96.14
2017-12-21T01:21:29.931Z,96.03
2017-12-21T01:22:36.043Z,95.94
2017-12-21T01:23:41.706Z,96.11
2017-12-21T01:24:49.607Z,96.28
2017-12-21T01:25:54.895Z,96.28
2017-12-21T01:26:59.458Z,96.32
2017-12-21T01:28:04.112Z,96.10
2017-12-21T01:29:09.136Z,96.12
2017-12-21T01:30:15.356Z,96.36
2017-12-21T01:31:20.198Z,96.11
2017-12-21T01:32:25.553Z,95.84
2017-12-21T01:33:30.617Z,95.72
2017-12-21T01:34:36.143Z,95.57
2017-12-21T01:35:41.327Z,95.69
2017-12-21T01:36:46.697Z,95.86
2017-12-21T01:37:51.687Z,95.88
2017-12-21T01:38:56.881Z,95.92
2017-12-21T01:40:02.347Z,95.82
2017-12-21T01:41:07.650Z,95.73
2017-12-21T01:42:12.908Z,95.85
2017-12-21T01:43:17.682Z,95.95
2017-12-21T01:44:23.137Z,96.05
2017-12-21T01:45:28.034Z,95.97
2017-12-21T01:46:34.774Z,95.86
2017-12-21T01:47:40.526Z,95.63
2017-12-21T01:48:45.420Z,95.62
2017-12-21T01:49:50.134Z,95.73
2017-12-21T01:50:54.716Z,95.59
2017-12-21T01:51:59.458Z,95.57
2017-12-21T01:53:04.176Z,95.69
2017-12-21T01:54:09.630Z,95.70
2017-12-21T01:55:14.610Z,95.47
2017-12-21T01:56:19.861Z,95.39
2017-12-21T01:57:24.799Z,95.54
2017-12-21T01:58:29.663Z,95.48
2017-12-21T01:59:35.530Z,95.43
2017-12-21T02:00:40.588Z,95.28
2017-12-21T02:01:46.344Z,95.29
2017-12-21T02:02:51.181Z,95.11
2017-12-21T02:03:55.944Z,95.00
2017-12-21T02:05:00.751Z,95.10
2017-12-21T02:06:05.787Z,95.18
2017-12-21T02:07:10.968Z,95.24
2017-12-21T02:08:17.370Z,95.44
2017-12-21T02:09:22.702Z,95.47
2017-12-21T02:10:27.699Z,95.58
2017-12-21T02:11:32.614Z,95.70
2017-12-21T02:12:37.866Z,95.41
2017-12-21T02:13:44.805Z,95.34
2017-12-21T02:14:49.688Z,95.23
2017-12-21T02:15:55.322Z,95.28
2017-12-21T02:19:19.872Z,95.92
2017-12-21T02:20:24.353Z,95.59
2017-12-21T02:21:28.898Z,95.53
2017-12-21T02:22:34.268Z,95.65
2017-12-21T02:23:39.729Z,95.48
2017-12-21T02:24:44.579Z,95.50
2017-12-21T02:25:50.133Z,95.48
2017-12-21T02:26:54.663Z,95.29
2017-12-21T02:27:59.142Z,95.24
2017-12-21T02:29:03.684Z,95.47
2017-12-21T02:30:08.204Z,95.46
2017-12-21T02:31:12.972Z,95.40
2017-12-21T02:34:01.488Z,95.20
2017-12-21T02:35:07.302Z,95.42
2017-12-21T02:36:13.120Z,95.52
2017-12-21T02:37:18.204Z,95.37
2017-12-21T02:38:22.638Z,95.07
2017-12-21T02:39:27.114Z,95.05
2017-12-21T02:40:31.780Z,95.18
2017-12-21T02:41:36.459Z,95.02
2017-12-21T02:42:40.894Z,95.06
2017-12-21T02:43:45.449Z,95.03
2017-12-21T02:44:50.327Z,95.20
2017-12-21T02:45:54.806Z,95.21
2017-12-21T02:46:59.911Z,95.29
2017-12-21T02:50:10.615Z,94.78
2017-12-21T02:51:14.909Z,94.95
2017-12-21T02:52:19.418Z,94.92
2017-12-21T02:53:23.789Z,95.00
2017-12-21T02:54:29.110Z,95.02
2017-12-21T02:55:33.695Z,95.09
2017-12-21T02:56:39.368Z,95.02
2017-12-21T02:57:43.694Z,95.06
2017-12-21T02:58:49.112Z,95.30
2017-12-21T02:59:53.440Z,94.70
2017-12-21T03:00:58.073Z,94.53
2017-12-21T03:02:02.623Z,94.71
2017-12-21T03:03:07.233Z,94.87
2017-12-21T03:04:11.549Z,94.64
2017-12-21T03:05:15.840Z,94.69
2017-12-21T03:06:21.179Z,94.63
2017-12-21T03:07:42.771Z,94.54
2017-12-21T03:09:00.504Z,94.96
2017-12-21T03:10:05.927Z,94.98
2017-12-21T03:11:10.849Z,95.24
2017-12-21T03:12:15.152Z,95.20
2017-12-21T03:13:19.451Z,95.07
2017-12-21T03:14:23.869Z,95.17
2017-12-21T03:15:28.789Z,95.26
2017-12-21T03:16:34.532Z,95.52
2017-12-21T03:17:39.769Z,95.46
2017-12-21T03:18:44.076Z,95.51
2017-12-21T03:19:48.472Z,95.49
2017-12-21T03:20:53.183Z,95.25
2017-12-21T03:21:57.789Z,95.28
2017-12-21T03:23:02.109Z,95.19
2017-12-21T03:24:06.416Z,95.36
2017-12-21T03:25:10.715Z,95.27
2017-12-21T03:26:15.460Z,95.28
2017-12-21T03:27:19.824Z,95.27
2017-12-21T03:28:24.149Z,95.26
2017-12-21T03:29:28.545Z,95.14
2017-12-21T03:30:33.010Z,94.79
2017-12-21T03:31:37.368Z,94.71
2017-12-21T03:32:41.988Z,94.72
2017-12-21T03:33:46.328Z,94.97
2017-12-21T03:34:50.644Z,95.04
2017-12-21T03:35:54.989Z,94.59
2017-12-21T03:36:59.408Z,94.49
2017-12-21T03:38:03.723Z,94.56
2017-12-21T03:39:25.551Z,94.78
2017-12-21T03:40:30.825Z,94.38
2017-12-21T03:41:35.172Z,94.43
2017-12-21T03:42:39.468Z,94.52
2017-12-21T03:43:44.197Z,94.71
2017-12-21T03:44:48.492Z,94.74
2017-12-21T03:45:53.108Z,94.66
2017-12-21T03:46:57.485Z,94.61
2017-12-21T03:48:01.929Z,94.55
2017-12-21T03:49:07.209Z,94.59
2017-12-21T03:50:19.379Z,94.83
2017-12-21T03:51:26.190Z,94.77
2017-12-21T03:52:30.863Z,95.02
2017-12-21T03:53:35.200Z,95.08
2017-12-21T03:54:40.420Z,95.02
2017-12-21T03:55:44.741Z,94.98
2017-12-21T03:56:49.036Z,95.04
2017-12-21T03:57:53.540Z,95.09
2017-12-21T03:58:57.870Z,95.09
2017-12-21T04:00:04.947Z,95.08
2017-12-21T04:01:09.454Z,94.95
2017-12-21T04:02:14.332Z,94.95
2017-12-21T04:03:18.607Z,95.07
2017-12-21T04:04:23.104Z,95.13
2017-12-21T04:05:29.164Z,95.08
2017-12-21T04:06:33.560Z,94.89
2017-12-21T04:07:37.872Z,94.99
2017-12-21T04:08:42.738Z,95.12
2017-12-21T04:09:47.028Z,95.16
2017-12-21T04:10:52.221Z,95.33
2017-12-21T04:11:56.616Z,95.40
2017-12-21T04:13:01.116Z,95.32
2017-12-21T04:14:05.467Z,95.41
2017-12-21T04:15:10.549Z,95.46
2017-12-21T04:16:14.861Z,95.31
2017-12-21T04:17:19.152Z,95.18
2017-12-21T04:18:23.567Z,94.86
2017-12-21T04:19:28.611Z,94.89
2017-12-21T04:20:33.296Z,94.92
2017-12-21T04:21:37.707Z,94.47
2017-12-21T04:22:42.769Z,94.30
2017-12-21T04:23:47.092Z,94.32
2017-12-21T04:24:51.580Z,94.38
2017-12-21T04:25:56.833Z,94.39
2017-12-21T04:27:01.640Z,94.32
2017-12-21T04:28:05.937Z,94.24
2017-12-21T04:29:10.315Z,94.42
2017-12-21T04:31:18.775Z,94.40
2017-12-21T04:32:23.069Z,94.33
2017-12-21T04:33:28.850Z,94.46
2017-12-21T04:34:33.151Z,94.58
2017-12-21T04:35:37.448Z,94.91
2017-12-21T04:36:41.779Z,94.97
2017-12-21T04:37:46.177Z,94.62
2017-12-21T04:38:50.736Z,94.87
2017-12-21T04:39:55.544Z,94.51
2017-12-21T04:40:59.829Z,94.33
2017-12-21T04:42:04.969Z,94.18
2017-12-21T04:43:11.888Z,94.36
2017-12-21T04:44:20.420Z,94.29
2017-12-21T04:45:26.299Z,94.61
2017-12-21T04:46:30.899Z,94.62
2017-12-21T04:47:35.311Z,94.78
2017-12-21T04:48:39.763Z,94.94
2017-12-21T04:49:44.052Z,95.19
2017-12-21T04:50:48.397Z,95.34
2017-12-21T04:51:53.935Z,95.29
2017-12-21T04:52:58.256Z,95.42
2017-12-21T04:54:02.566Z,95.49
2017-12-21T04:55:07.084Z,95.55
2017-12-21T04:56:11.521Z,95.45
2017-12-21T04:57:19.017Z,95.47
2017-12-21T04:58:23.640Z,95.09
2017-12-21T04:59:27.916Z,94.97
2017-12-21T05:00:33.386Z,95.08
2017-12-21T05:01:37.910Z,95.17
2017-12-21T05:02:42.228Z,95.00
2017-12-21T05:03:46.509Z,94.99
2017-12-21T05:04:51.135Z,95.29
2017-12-21T05:05:55.476Z,95.25
2017-12-21T05:06:59.878Z,95.26
2017-12-21T05:08:04.227Z,95.28
2017-12-21T05:09:09.848Z,95.13
2017-12-21T05:10:14.236Z,95.17
2017-12-21T05:11:18.813Z,95.07
2017-12-21T05:13:53.312Z,95.24
2017-12-21T05:14:57.675Z,95.41
2017-12-21T05:16:02.175Z,95.69
2017-12-21T05:17:06.788Z,95.80
2017-12-21T05:18:11.104Z,95.94
2017-12-21T05:19:15.506Z,95.93
2017-12-21T05:20:20.187Z,95.71
2017-12-21T05:21:24.763Z,95.58
2017-12-21T05:22:29.395Z,95.81
2017-12-21T05:23:33.764Z,95.89
2017-12-21T05:24:38.142Z,95.85
2017-12-21T05:25:43.464Z,95.67
2017-12-21T05:26:47.889Z,95.79
2017-12-21T05:27:52.203Z,95.47
2017-12-21T05:28:56.910Z,95.57
2017-12-21T05:30:01.234Z,95.49
2017-12-21T05:31:08.658Z,95.22
2017-12-21T05:32:13.272Z,95.09
2017-12-21T05:33:17.530Z,95.24
2017-12-21T05:34:21.898Z,95.12
2017-12-21T05:35:26.562Z,95.18
2017-12-21T05:36:30.865Z,95.49
2017-12-21T05:37:35.254Z,95.48
2017-12-21T05:38:40.747Z,95.54
2017-12-21T05:39:45.176Z,95.52
2017-12-21T05:43:41.062Z,95.81
2017-12-21T05:44:45.591Z,95.60
2017-12-21T05:45:51.049Z,95.68
2017-12-21T05:46:55.360Z,95.61
2017-12-21T05:47:59.670Z,95.64
2017-12-21T05:49:04.212Z,95.80
2017-12-21T05:50:08.861Z,95.72
2017-12-21T05:51:13.237Z,95.60
2017-12-21T05:52:17.604Z,95.54
2017-12-21T05:53:21.980Z,95.37
2017-12-21T05:54:26.300Z,95.42
2017-12-21T05:55:30.851Z,95.24
2017-12-21T05:56:35.504Z,95.23
2017-12-21T05:57:40.010Z,95.20
2017-12-21T05:58:44.504Z,94.95
2017-12-21T05:59:48.844Z,94.75
2017-12-21T06:00:53.833Z,94.90
2017-12-21T06:01:58.265Z,95.10
2017-12-21T06:03:03.152Z,94.89
2017-12-21T06:04:07.814Z,94.99
2017-12-21T06:05:12.196Z,95.04
2017-12-21T06:06:23.193Z,95.16
2017-12-21T06:07:27.580Z,95.11
2017-12-21T06:08:36.255Z,95.08
2017-12-21T06:09:40.618Z,94.97
2017-12-21T06:10:44.914Z,95.06
2017-12-21T06:11:49.332Z,95.14
2017-12-21T06:12:53.737Z,95.15
2017-12-21T06:13:58.940Z,95.15
2017-12-21T06:15:05.434Z,95.26
2017-12-21T06:16:10.128Z,95.26
2017-12-21T06:17:14.634Z,95.23
2017-12-21T06:18:19.062Z,95.12
2017-12-21T06:19:23.656Z,95.09
2017-12-21T06:20:28.390Z,94.74
2017-12-21T06:21:33.038Z,94.86
2017-12-21T06:22:37.484Z,94.96
2017-12-21T06:23:41.877Z,94.72
2017-12-21T06:24:46.176Z,94.43
2017-12-21T06:25:50.536Z,94.50
2017-12-21T06:26:54.938Z,94.59
2017-12-21T06:27:59.537Z,94.55
2017-12-21T06:29:03.889Z,94.60
2017-12-21T06:30:08.323Z,94.62
2017-12-21T06:31:13.038Z,94.51
2017-12-21T06:32:17.337Z,94.63
2017-12-21T06:33:21.608Z,94.80
2017-12-21T06:34:26.224Z,94.87
2017-12-21T06:35:30.569Z,94.97
2017-12-21T06:36:34.951Z,95.06
2017-12-21T06:37:39.227Z,95.15
2017-12-21T06:38:43.620Z,95.25
2017-12-21T06:39:47.885Z,95.18
2017-12-21T06:40:52.516Z,95.02
2017-12-21T06:41:57.010Z,94.72
2017-12-21T06:43:01.380Z,94.64
2017-12-21T06:44:05.665Z,94.69
2017-12-21T06:45:10.236Z,94.86
2017-12-21T06:46:17.383Z,94.77
2017-12-21T06:47:22.017Z,94.73
2017-12-21T06:48:26.342Z,94.78
2017-12-21T06:49:30.737Z,94.73
2017-12-21T06:50:35.200Z,94.84
2017-12-21T06:51:39.783Z,94.67
2017-12-21T06:52:44.128Z,94.68
2017-12-21T06:53:48.494Z,94.31
2017-12-21T06:54:52.825Z,94.72
2017-12-21T06:55:57.233Z,94.85
2017-12-21T06:57:01.567Z,94.67
2017-12-21T06:58:05.909Z,94.59
2017-12-21T06:59:10.261Z,94.58
2017-12-21T07:00:25.836Z,94.55
2017-12-21T07:01:30.836Z,94.67
2017-12-21T07:02:35.269Z,94.69
2017-12-21T07:03:40.546Z,94.61
2017-12-21T07:04:44.937Z,94.49
2017-12-21T07:05:49.599Z,94.36
2017-12-21T07:06:54.058Z,94.23
2017-12-21T07:07:58.498Z,93.96
2017-12-21T07:09:02.869Z,93.86
2017-12-21T07:10:07.303Z,93.87
2017-12-21T07:11:11.588Z,93.95
2017-12-21T07:12:16.328Z,94.01
2017-12-21T07:13:20.743Z,94.31
2017-12-21T07:14:25.120Z,94.42
2017-12-21T07:15:36.141Z,94.28
2017-12-21T07:16:41.152Z,94.45
2017-12-21T07:17:45.525Z,94.36
2017-12-21T07:18:50.064Z,94.31
2017-12-21T07:19:54.729Z,94.16
2017-12-21T07:20:59.152Z,94.00
2017-12-21T07:22:03.473Z,94.22
2017-12-21T07:23:07.801Z,93.94
2017-12-21T07:24:14.207Z,93.95
2017-12-21T07:25:19.024Z,94.08
2017-12-21T07:26:23.316Z,93.97
2017-12-21T07:27:27.641Z,94.00
2017-12-21T07:28:31.964Z,94.12
2017-12-21T07:29:36.375Z,94.23
2017-12-21T07:30:41.132Z,94.24
2017-12-21T07:31:45.737Z,94.46
2017-12-21T07:32:50.057Z,94.38
2017-12-21T07:33:54.363Z,94.28
2017-12-21T07:34:58.729Z,94.16
2017-12-21T07:36:03.057Z,94.20
2017-12-21T07:37:07.427Z,94.10
2017-12-21T07:38:12.039Z,93.98
2017-12-21T07:39:16.364Z,94.23
2017-12-21T07:40:22.820Z,94.28
2017-12-21T07:41:27.161Z,94.24
2017-12-21T07:42:31.440Z,94.07
2017-12-21T07:43:35.735Z,94.05
2017-12-21T07:44:41.020Z,94.15
2017-12-21T07:45:45.484Z,93.72
2017-12-21T07:46:49.808Z,93.64
2017-12-21T07:47:54.129Z,93.63
2017-12-21T07:48:58.541Z,93.49
2017-12-21T07:50:02.851Z,93.72
2017-12-21T07:51:07.464Z,93.53
2017-12-21T07:52:11.873Z,93.67
2017-12-21T07:53:16.458Z,93.61
2017-12-21T07:54:21.940Z,93.77
2017-12-21T07:55:29.032Z,93.55
2017-12-21T07:56:34.491Z,93.37
2017-12-21T07:57:40.072Z,93.35
2017-12-21T07:58:44.438Z,93.14
2017-12-21T07:59:48.871Z,93.34
2017-12-21T08:00:53.346Z,93.78
2017-12-21T08:01:57.649Z,93.87
2017-12-21T08:03:01.960Z,93.76
2017-12-21T08:04:06.581Z,93.95
2017-12-21T08:05:10.994Z,93.78
2017-12-21T08:06:15.336Z,93.78
2017-12-21T08:07:19.688Z,93.66
2017-12-21T08:08:24.004Z,93.80
2017-12-21T08:09:28.732Z,93.67
2017-12-21T08:10:33.654Z,93.88
2017-12-21T08:11:38.769Z,93.59
2017-12-21T08:12:43.152Z,93.71
2017-12-21T08:13:47.615Z,93.82
2017-12-21T08:14:51.954Z,93.84
2017-12-21T08:15:56.873Z,93.97
2017-12-21T08:17:01.588Z,93.73
2017-12-21T08:18:05.872Z,93.67
2017-12-21T08:19:10.255Z,93.41
2017-12-21T08:20:14.561Z,92.65
2017-12-21T08:21:18.931Z,92.39
2017-12-21T08:22:23.595Z,92.60
2017-12-21T08:23:28.009Z,92.28
2017-12-21T08:24:33.851Z,92.04
2017-12-21T08:25:38.246Z,92.02
2017-12-21T08:26:43.213Z,92.19
2017-12-21T08:27:47.648Z,92.78
2017-12-21T08:28:52.316Z,93.34
2017-12-21T08:29:56.697Z,92.95
2017-12-21T08:31:01.420Z,92.93
2017-12-21T08:32:05.805Z,93.16
2017-12-21T08:33:10.145Z,93.48
2017-12-21T08:34:14.872Z,93.35
2017-12-21T08:35:19.177Z,93.57
2017-12-21T08:36:23.575Z,93.34
2017-12-21T08:37:27.947Z,93.20
2017-12-21T08:38:33.132Z,93.40
2017-12-21T08:39:37.976Z,93.43
2017-12-21T08:40:43.236Z,93.82
2017-12-21T08:41:48.578Z,93.88
2017-12-21T08:42:53.885Z,93.88
2017-12-21T08:43:58.380Z,93.58
2017-12-21T08:45:04.297Z,93.37
2017-12-21T08:46:08.781Z,93.40
2017-12-21T08:47:13.441Z,93.33
2017-12-21T08:48:17.770Z,93.57
2017-12-21T08:49:22.139Z,93.77
2017-12-21T08:50:26.437Z,93.75
2017-12-21T08:51:31.779Z,93.63
2017-12-21T08:52:36.116Z,93.74
2017-12-21T08:53:40.769Z,93.55
2017-12-21T08:54:45.174Z,93.43
2017-12-21T08:55:49.504Z,93.56
2017-12-21T08:56:53.917Z,93.23
2017-12-21T08:57:58.248Z,93.46
2017-12-21T08:59:02.580Z,93.29
2017-12-21T09:00:14.355Z,93.24
2017-12-21T09:01:18.737Z,93.01
2017-12-21T09:02:23.137Z,92.64
2017-12-21T09:03:28.208Z,92.38
2017-12-21T09:04:33.305Z,92.43
2017-12-21T09:05:37.684Z,92.72
2017-12-21T09:06:43.071Z,92.39
2017-12-21T09:07:47.452Z,92.76
2017-12-21T09:08:52.797Z,92.44
2017-12-21T09:09:57.147Z,91.81
2017-12-21T09:11:01.528Z,92.22
2017-12-21T09:12:05.991Z,92.26
2017-12-21T09:13:10.296Z,92.59
2017-12-21T09:14:14.760Z,92.14
2017-12-21T09:15:19.073Z,92.37
2017-12-21T09:16:27.894Z,92.57
2017-12-21T09:17:33.303Z,92.73
2017-12-21T09:18:38.488Z,92.77
2017-12-21T09:19:42.855Z,92.86
2017-12-21T09:20:47.213Z,92.43
2017-12-21T09:21:51.541Z,91.88
2017-12-21T09:22:55.866Z,91.07
2017-12-21T09:24:00.209Z,91.47
2017-12-21T09:25:05.782Z,92.04
2017-12-21T09:26:10.134Z,91.49
2017-12-21T09:27:14.624Z,91.89
2017-12-21T09:28:18.902Z,92.13
2017-12-21T09:29:23.304Z,91.14
2017-12-21T09:30:28.971Z,90.90
2017-12-21T09:31:36.395Z,91.43
2017-12-21T09:32:41.118Z,91.01
2017-12-21T09:33:46.177Z,89.78
2017-12-21T09:34:50.532Z,90.37
2017-12-21T09:35:55.515Z,90.68
2017-12-21T09:37:00.196Z,90.98
2017-12-21T09:38:04.561Z,91.51
2017-12-21T09:39:08.937Z,91.59
2017-12-21T09:40:13.378Z,91.91
2017-12-21T09:41:17.687Z,91.49
2017-12-21T09:42:22.227Z,91.04
2017-12-21T09:43:26.543Z,89.87
2017-12-21T09:44:31.390Z,89.64
2017-12-21T09:45:35.875Z,89.49
2017-12-21T09:46:40.218Z,90.01
2017-12-21T09:47:44.588Z,90.29
2017-12-21T09:48:49.356Z,90.72
2017-12-21T09:49:53.971Z,90.16
2017-12-21T09:50:58.296Z,90.46
2017-12-21T09:52:02.609Z,91.03
2017-12-21T09:53:07.051Z,90.97
2017-12-21T09:54:11.421Z,91.38
2017-12-21T09:55:16.100Z,91.77
2017-12-21T09:56:20.825Z,91.09
2017-12-21T09:57:25.151Z,91.87
2017-12-21T09:58:30.237Z,91.44
2017-12-21T09:59:34.699Z,91.60
2017-12-21T10:00:39.696Z,91.06
2017-12-21T10:01:44.125Z,91.16
2017-12-21T10:02:48.483Z,91.22
2017-12-21T10:03:52.913Z,91.09
2017-12-21T10:04:57.246Z,91.94
2017-12-21T10:06:02.209Z,91.20
2017-12-21T10:07:06.940Z,90.51
2017-12-21T10:08:14.321Z,90.42
2017-12-21T10:09:18.703Z,90.44
2017-12-21T10:10:23.154Z,90.22
2017-12-21T10:11:27.574Z,90.35
2017-12-21T10:12:32.057Z,89.93
2017-12-21T10:13:36.741Z,89.85
2017-12-21T10:14:41.898Z,89.81
2017-12-21T10:15:46.504Z,90.29
2017-12-21T10:16:50.863Z,90.62
2017-12-21T10:17:55.378Z,90.67
2017-12-21T10:18:59.713Z,89.75
2017-12-21T10:20:04.509Z,90.53
2017-12-21T10:21:15.577Z,90.81
2017-12-21T10:22:19.969Z,91.24
2017-12-21T10:23:24.400Z,90.65
2017-12-21T10:24:30.464Z,91.19
2017-12-21T10:25:34.916Z,90.76
2017-12-21T10:26:40.461Z,90.68
2017-12-21T10:27:44.862Z,89.36
2017-12-21T10:28:50.831Z,88.98
2017-12-21T10:29:55.328Z,89.41
2017-12-21T10:31:00.167Z,90.39
2017-12-21T10:32:04.661Z,89.83
2017-12-21T10:33:09.124Z,89.86
2017-12-21T10:34:13.540Z,90.76
2017-12-21T10:35:17.904Z,90.88
2017-12-21T10:36:22.271Z,90.21
2017-12-21T10:37:26.679Z,90.78
2017-12-21T10:38:31.506Z,90.09
2017-12-21T10:39:36.018Z,89.49
2017-12-21T10:40:41.168Z,89.42
2017-12-21T10:41:45.490Z,89.15
2017-12-21T10:42:50.261Z,89.02
2017-12-21T10:43:54.638Z,90.01
2017-12-21T10:44:59.065Z,89.29
2017-12-21T10:46:03.518Z,89.69
2017-12-21T10:47:07.941Z,89.27
2017-12-21T10:48:12.442Z,87.68
2017-12-21T10:49:17.167Z,87.55
2017-12-21T10:50:21.778Z,87.44
2017-12-21T10:51:26.281Z,87.45
2017-12-21T10:52:31.621Z,87.81
2017-12-21T10:53:36.115Z,87.29
2017-12-21T10:54:40.605Z,87.25
2017-12-21T10:55:45.225Z,87.00
2017-12-21T10:56:50.006Z,86.96
2017-12-21T10:57:54.650Z,86.75
2017-12-21T10:58:59.179Z,86.36
2017-12-21T11:00:05.228Z,85.52
2017-12-21T11:01:09.998Z,85.28
2017-12-21T11:02:14.321Z,85.91
2017-12-21T11:03:18.624Z,85.76
2017-12-21T11:04:22.994Z,85.86
2017-12-21T11:05:27.347Z,86.05
2017-12-21T11:06:32.405Z,85.55
2017-12-21T11:07:37.162Z,85.42
2017-12-21T11:08:41.751Z,85.22
2017-12-21T11:09:46.113Z,84.88
2017-12-21T11:10:50.493Z,86.01
2017-12-21T11:11:54.872Z,85.90
2017-12-21T11:12:59.340Z,86.22
2017-12-21T11:14:04.036Z,86.27
2017-12-21T11:15:08.623Z,86.68
2017-12-21T11:16:13.260Z,86.15
2017-12-21T11:17:17.659Z,85.75
2017-12-21T11:18:22.250Z,85.60
2017-12-21T11:19:26.577Z,85.77
2017-12-21T11:20:36.245Z,85.74
2017-12-21T11:21:43.381Z,85.55
2017-12-21T11:22:47.721Z,85.07
2017-12-21T11:23:52.696Z,84.53
2017-12-21T11:24:57.076Z,85.17
2017-12-21T11:26:01.504Z,85.54
2017-12-21T11:27:05.870Z,85.89
2017-12-21T11:28:10.319Z,85.80
2017-12-21T11:29:14.682Z,85.45
2017-12-21T11:30:19.304Z,85.47
2017-12-21T11:31:24.115Z,85.14
2017-12-21T11:32:28.873Z,85.44
2017-12-21T11:33:33.319Z,85.89
2017-12-21T11:34:37.696Z,85.94
2017-12-21T11:35:43.014Z,86.18
2017-12-21T11:36:47.690Z,87.47
2017-12-21T11:37:52.082Z,88.30
2017-12-21T11:38:56.537Z,88.44
2017-12-21T11:40:00.906Z,88.54
2017-12-21T11:41:05.539Z,89.33
2017-12-21T11:42:09.876Z,89.83
2017-12-21T11:43:14.544Z,90.00
2017-12-21T11:44:19.003Z,89.95
2017-12-21T11:45:23.700Z,90.55
2017-12-21T11:46:28.118Z,90.02
2017-12-21T11:47:33.729Z,89.72
2017-12-21T11:48:39.004Z,90.12
2017-12-21T11:49:43.734Z,89.56
2017-12-21T11:50:48.545Z,90.12
2017-12-21T11:51:53.008Z,90.13
2017-12-21T11:52:57.502Z,89.25
2017-12-21T11:54:01.979Z,89.16
2017-12-21T11:55:06.429Z,88.99
2017-12-21T11:56:16.468Z,88.37
2017-12-21T11:57:21.115Z,87.89
2017-12-21T11:58:25.610Z,88.20
2017-12-21T11:59:30.385Z,88.02
2017-12-21T12:00:35.011Z,88.03
2017-12-21T12:01:39.581Z,88.74
2017-12-21T12:02:44.374Z,89.08
2017-12-21T12:03:48.784Z,88.97
2017-12-21T12:04:53.144Z,89.29
2017-12-21T12:05:57.540Z,89.50
2017-12-21T12:07:02.346Z,89.61
2017-12-21T12:09:17.721Z,89.74
2017-12-21T12:10:22.160Z,89.54
2017-12-21T12:11:26.733Z,89.44
2017-12-21T12:12:31.823Z,89.08
2017-12-21T12:13:36.442Z,89.31
2017-12-21T12:14:41.654Z,89.24
2017-12-21T12:15:46.296Z,89.64
2017-12-21T12:16:50.892Z,89.86
2017-12-21T12:17:55.356Z,89.15
2017-12-21T12:18:59.757Z,89.53
2017-12-21T12:20:04.396Z,89.49
2017-12-21T12:21:09.512Z,89.90
2017-12-21T12:22:14.012Z,90.39
2017-12-21T12:23:18.613Z,90.51
2017-12-21T12:24:23.275Z,90.51
2017-12-21T12:25:27.942Z,90.59
2017-12-21T12:26:33.327Z,89.62
2017-12-21T12:27:38.526Z,89.69
2017-12-21T12:28:42.952Z,90.14
2017-12-21T12:29:47.355Z,89.80
2017-12-21T12:30:52.290Z,90.49
2017-12-21T12:31:56.681Z,90.65
2017-12-21T12:33:01.061Z,89.52
2017-12-21T12:34:05.838Z,89.57
2017-12-21T12:35:10.265Z,88.78
2017-12-21T12:36:14.638Z,89.93
2017-12-21T12:37:19.120Z,90.08
2017-12-21T12:38:23.494Z,90.19
2017-12-21T12:39:27.998Z,90.42
2017-12-21T12:40:33.349Z,90.07
2017-12-21T12:41:38.762Z,89.96
2017-12-21T12:42:43.230Z,90.29
2017-12-21T12:43:47.617Z,89.84
2017-12-21T12:44:52.073Z,90.16
2017-12-21T12:45:56.657Z,90.63
2017-12-21T12:47:01.310Z,90.31
2017-12-21T12:48:05.713Z,90.56
2017-12-21T12:49:10.152Z,90.63
2017-12-21T12:50:14.619Z,91.06
2017-12-21T12:51:18.951Z,90.78
2017-12-21T12:52:23.563Z,90.45
2017-12-21T12:53:28.008Z,91.01
2017-12-21T12:54:33.086Z,90.63
2017-12-21T12:55:37.556Z,90.76
2017-12-21T12:56:42.843Z,90.73
2017-12-21T12:57:47.259Z,90.96
2017-12-21T12:58:52.010Z,91.04
2017-12-21T12:59:56.402Z,90.89
2017-12-21T13:01:01.379Z,91.68
2017-12-21T13:02:05.749Z,91.71
2017-12-21T13:03:10.217Z,91.52
2017-12-21T13:04:14.637Z,91.56
2017-12-21T13:05:19.366Z,92.12
2017-12-21T13:06:23.793Z,91.49
2017-12-21T13:07:28.306Z,91.59
2017-12-21T13:08:33.587Z,92.16
2017-12-21T13:09:38.041Z,91.39
2017-12-21T13:10:42.482Z,91.03
2017-12-21T13:11:47.930Z,91.19
2017-12-21T13:12:52.403Z,91.62
2017-12-21T13:13:56.867Z,90.86
2017-12-21T13:15:02.910Z,91.07
2017-12-21T13:16:13.600Z,91.10
2017-12-21T13:17:17.982Z,91.36
2017-12-21T13:18:22.488Z,91.48
2017-12-21T13:19:27.047Z,90.53
2017-12-21T13:20:31.619Z,91.72
2017-12-21T13:21:36.086Z,89.21
2017-12-21T13:22:41.668Z,90.00
2017-12-21T13:23:46.031Z,89.57
2017-12-21T13:24:50.372Z,89.87
2017-12-21T13:25:54.905Z,90.06
2017-12-21T13:26:59.485Z,90.55
2017-12-21T13:28:04.046Z,90.09
2017-12-21T13:29:08.508Z,90.63
2017-12-21T13:30:14.746Z,90.98
2017-12-21T13:31:19.263Z,90.54
2017-12-21T13:32:23.690Z,89.84
2017-12-21T13:33:28.188Z,89.37
2017-12-21T13:34:33.065Z,89.38
2017-12-21T13:35:39.225Z,89.64
2017-12-21T13:36:44.037Z,89.46
2017-12-21T13:37:48.359Z,89.69
2017-12-21T13:38:52.990Z,90.05
2017-12-21T13:39:57.415Z,89.89
2017-12-21T13:41:02.205Z,89.45
2017-12-21T13:42:06.641Z,89.52
2017-12-21T13:43:11.175Z,90.25
2017-12-21T13:44:15.642Z,91.08
2017-12-21T13:45:20.080Z,90.61
2017-12-21T13:46:24.855Z,90.92
2017-12-21T13:47:29.772Z,90.33
2017-12-21T13:48:35.201Z,89.63
2017-12-21T13:49:40.412Z,89.54
2017-12-21T13:50:44.875Z,89.73
2017-12-21T13:51:49.302Z,90.37
2017-12-21T13:52:53.794Z,90.26
2017-12-21T13:53:58.546Z,90.90
2017-12-21T13:55:02.967Z,90.77
2017-12-21T13:56:18.035Z,90.95
2017-12-21T13:57:22.583Z,90.68
2017-12-21T13:58:27.040Z,91.54
2017-12-21T13:59:31.496Z,90.72
2017-12-21T14:00:36.721Z,89.56
2017-12-21T14:01:42.377Z,89.87
2017-12-21T14:02:46.955Z,89.50
2017-12-21T14:03:52.362Z,89.23
2017-12-21T14:04:56.832Z,90.04
2017-12-21T14:06:01.479Z,89.85
2017-12-21T14:07:06.180Z,89.33
2017-12-21T14:08:11.290Z,88.63
2017-12-21T14:09:15.933Z,89.63
2017-12-21T14:10:20.461Z,89.08
2017-12-21T14:11:24.891Z,88.80